sensor_id;sensor_type;location;lat;lon;timestamp;P1;durP1;ratioP1;P2;durP2;ratioP2
62925;SDS011;55732;52.248;-0.844;2023-08-24T00:02:00;6.70;;;3.50;;
62925;SDS011;55732;52.248;-0.844;2023-08-24T00:04:27;4.80;;;3.00;;
62925;SDS011;55732;52.248;-0.844;2023-08-24T00:06:53;6.10;;;3.00;;
62925;SDS011;55732;52.248;-0.844;2023-08-24T00:09:19;6.40;;;3.00;;
62925;SDS011;55732;52.248;-0.844;2023-08-24T00:11:45;5.60;;;3.20;;
62925;SDS011;55732;52.248;-0.844;2023-08-24T00:14:10;8.60;;;3.30;;
62925;SDS011;55732;52.248;-0.844;2023-08-24T00:16:36;7.50;;;3.40;;
62925;SDS011;55732;52.248;-0.844;2023-08-24T00:19:02;5.90;;;3.90;;
62925;SDS011;55732;52.248;-0.844;2023-08-24T00:21:27;9.20;;;3.50;;
62925;SDS011;55732;52.248;-0.844;2023-08-24T00:23:53;9.90;;;3.40;;
62925;SDS011;55732;52.248;-0.844;2023-08-24T00:26:19;7.80;;;3.40;;
62925;SDS011;55732;52.248;-0.844;2023-08-24T00:28:45;4.60;;;3.10;;
62925;SDS011;55732;52.248;-0.844;2023-08-24T00:31:11;5.80;;;3.50;;
62925;SDS011;55732;52.248;-0.844;2023-08-24T00:33:37;11.90;;;3.40;;
62925;SDS011;55732;52.248;-0.844;2023-08-24T00:36:04;9.40;;;3.10;;
62925;SDS011;55732;52.248;-0.844;2023-08-24T00:38:30;6.10;;;2.90;;
62925;SDS011;55732;52.248;-0.844;2023-08-24T00:40:57;7.60;;;3.60;;
62925;SDS011;55732;52.248;-0.844;2023-08-24T00:43:25;5.30;;;3.20;;
62925;SDS011;55732;52.248;-0.844;2023-08-24T00:45:51;7.70;;;3.10;;
62925;SDS011;55732;52.248;-0.844;2023-08-24T00:48:17;5.60;;;3.50;;
62925;SDS011;55732;52.248;-0.844;2023-08-24T00:50:44;5.50;;;3.20;;
62925;SDS011;55732;52.248;-0.844;2023-08-24T00:53:10;4.90;;;3.50;;
62925;SDS011;55732;52.248;-0.844;2023-08-24T00:55:36;6.00;;;3.30;;
62925;SDS011;55732;52.248;-0.844;2023-08-24T00:58:02;6.90;;;3.70;;
62925;SDS011;55732;52.248;-0.844;2023-08-24T01:00:28;7.20;;;3.20;;
62925;SDS011;55732;52.248;-0.844;2023-08-24T01:02:54;9.70;;;3.40;;
62925;SDS011;55732;52.248;-0.844;2023-08-24T01:05:20;5.10;;;2.90;;
62925;SDS011;55732;52.248;-0.844;2023-08-24T01:07:45;6.20;;;3.50;;
62925;SDS011;55732;52.248;-0.844;2023-08-24T01:10:11;5.50;;;3.40;;
62925;SDS011;55732;52.248;-0.844;2023-08-24T01:15:16;5.90;;;3.10;;
62925;SDS011;55732;52.248;-0.844;2023-08-24T01:18:04;8.50;;;3.70;;
62925;SDS011;55732;52.248;-0.844;2023-08-24T01:20:32;10.90;;;3.90;;
62925;SDS011;55732;52.248;-0.844;2023-08-24T01:25:53;9.10;;;3.80;;
62925;SDS011;55732;52.248;-0.844;2023-08-24T01:28:18;5.50;;;3.40;;
62925;SDS011;55732;52.248;-0.844;2023-08-24T01:30:46;6.00;;;3.30;;
62925;SDS011;55732;52.248;-0.844;2023-08-24T01:33:12;5.00;;;3.10;;
62925;SDS011;55732;52.248;-0.844;2023-08-24T01:35:39;5.70;;;3.00;;
62925;SDS011;55732;52.248;-0.844;2023-08-24T01:38:05;5.80;;;3.40;;
62925;SDS011;55732;52.248;-0.844;2023-08-24T01:43:29;6.70;;;3.40;;
62925;SDS011;55732;52.248;-0.844;2023-08-24T01:45:59;6.40;;;3.10;;
62925;SDS011;55732;52.248;-0.844;2023-08-24T01:48:28;5.10;;;3.30;;
62925;SDS011;55732;52.248;-0.844;2023-08-24T01:50:54;5.60;;;2.90;;
62925;SDS011;55732;52.248;-0.844;2023-08-24T01:53:21;6.00;;;3.50;;
62925;SDS011;55732;52.248;-0.844;2023-08-24T01:55:47;8.80;;;3.40;;
62925;SDS011;55732;52.248;-0.844;2023-08-24T01:58:12;6.70;;;3.30;;
62925;SDS011;55732;52.248;-0.844;2023-08-24T02:00:38;11.00;;;3.60;;
62925;SDS011;55732;52.248;-0.844;2023-08-24T02:03:03;7.30;;;3.70;;
62925;SDS011;55732;52.248;-0.844;2023-08-24T02:05:29;5.10;;;3.00;;
62925;SDS011;55732;52.248;-0.844;2023-08-24T02:07:54;5.70;;;3.20;;
62925;SDS011;55732;52.248;-0.844;2023-08-24T02:10:20;5.80;;;3.50;;
62925;SDS011;55732;52.248;-0.844;2023-08-24T02:12:46;7.10;;;3.40;;
62925;SDS011;55732;52.248;-0.844;2023-08-24T02:15:11;7.90;;;3.50;;
62925;SDS011;55732;52.248;-0.844;2023-08-24T02:17:36;6.30;;;3.20;;
62925;SDS011;55732;52.248;-0.844;2023-08-24T02:20:02;8.20;;;3.10;;
62925;SDS011;55732;52.248;-0.844;2023-08-24T02:22:29;7.80;;;3.10;;
62925;SDS011;55732;52.248;-0.844;2023-08-24T02:24:55;4.40;;;3.20;;
62925;SDS011;55732;52.248;-0.844;2023-08-24T02:27:21;5.10;;;3.20;;
62925;SDS011;55732;52.248;-0.844;2023-08-24T02:29:46;8.30;;;3.60;;
62925;SDS011;55732;52.248;-0.844;2023-08-24T02:32:12;6.30;;;3.20;;
62925;SDS011;55732;52.248;-0.844;2023-08-24T02:34:37;3.80;;;2.90;;
62925;SDS011;55732;52.248;-0.844;2023-08-24T02:37:03;9.10;;;3.20;;
62925;SDS011;55732;52.248;-0.844;2023-08-24T02:39:29;5.90;;;3.30;;
62925;SDS011;55732;52.248;-0.844;2023-08-24T02:41:54;11.60;;;3.30;;
62925;SDS011;55732;52.248;-0.844;2023-08-24T02:44:20;4.60;;;2.90;;
62925;SDS011;55732;52.248;-0.844;2023-08-24T02:46:47;8.10;;;3.70;;
62925;SDS011;55732;52.248;-0.844;2023-08-24T02:49:13;5.60;;;3.50;;
62925;SDS011;55732;52.248;-0.844;2023-08-24T02:51:39;7.10;;;3.60;;
62925;SDS011;55732;52.248;-0.844;2023-08-24T02:54:04;14.40;;;4.20;;
62925;SDS011;55732;52.248;-0.844;2023-08-24T02:56:30;6.00;;;3.30;;
62925;SDS011;55732;52.248;-0.844;2023-08-24T02:58:55;9.60;;;3.30;;
62925;SDS011;55732;52.248;-0.844;2023-08-24T03:01:21;5.80;;;3.40;;
62925;SDS011;55732;52.248;-0.844;2023-08-24T03:03:46;7.10;;;3.30;;
62925;SDS011;55732;52.248;-0.844;2023-08-24T03:06:12;7.90;;;3.50;;
62925;SDS011;55732;52.248;-0.844;2023-08-24T03:08:37;8.70;;;3.40;;
62925;SDS011;55732;52.248;-0.844;2023-08-24T03:11:03;5.50;;;3.30;;
62925;SDS011;55732;52.248;-0.844;2023-08-24T03:13:29;5.80;;;3.40;;
62925;SDS011;55732;52.248;-0.844;2023-08-24T03:15:55;8.10;;;3.60;;
62925;SDS011;55732;52.248;-0.844;2023-08-24T03:18:21;5.80;;;3.50;;
62925;SDS011;55732;52.248;-0.844;2023-08-24T03:20:47;6.50;;;3.10;;
62925;SDS011;55732;52.248;-0.844;2023-08-24T03:23:17;8.50;;;3.40;;
62925;SDS011;55732;52.248;-0.844;2023-08-24T03:25:43;6.60;;;3.30;;
62925;SDS011;55732;52.248;-0.844;2023-08-24T03:28:09;7.60;;;3.50;;
62925;SDS011;55732;52.248;-0.844;2023-08-24T03:30:35;6.30;;;3.50;;
62925;SDS011;55732;52.248;-0.844;2023-08-24T03:33:02;6.30;;;3.40;;
62925;SDS011;55732;52.248;-0.844;2023-08-24T03:35:30;7.30;;;3.90;;
62925;SDS011;55732;52.248;-0.844;2023-08-24T03:37:57;5.70;;;3.30;;
62925;SDS011;55732;52.248;-0.844;2023-08-24T03:40:22;7.20;;;3.20;;
62925;SDS011;55732;52.248;-0.844;2023-08-24T03:42:48;8.50;;;3.60;;
62925;SDS011;55732;52.248;-0.844;2023-08-24T03:45:13;9.10;;;3.50;;
62925;SDS011;55732;52.248;-0.844;2023-08-24T03:47:39;10.70;;;3.70;;
62925;SDS011;55732;52.248;-0.844;2023-08-24T03:50:05;5.00;;;3.30;;
62925;SDS011;55732;52.248;-0.844;2023-08-24T03:52:31;8.00;;;3.30;;
62925;SDS011;55732;52.248;-0.844;2023-08-24T03:54:56;10.00;;;3.60;;
62925;SDS011;55732;52.248;-0.844;2023-08-24T03:57:22;9.80;;;3.30;;
62925;SDS011;55732;52.248;-0.844;2023-08-24T03:59:47;9.10;;;3.00;;
62925;SDS011;55732;52.248;-0.844;2023-08-24T04:02:13;8.10;;;3.60;;
62925;SDS011;55732;52.248;-0.844;2023-08-24T04:04:38;7.30;;;3.40;;
62925;SDS011;55732;52.248;-0.844;2023-08-24T04:07:04;15.50;;;3.60;;
62925;SDS011;55732;52.248;-0.844;2023-08-24T04:09:30;11.70;;;3.60;;
62925;SDS011;55732;52.248;-0.844;2023-08-24T04:11:55;4.40;;;3.40;;
62925;SDS011;55732;52.248;-0.844;2023-08-24T04:14:21;5.20;;;3.00;;
62925;SDS011;55732;52.248;-0.844;2023-08-24T04:16:46;5.20;;;3.20;;
62925;SDS011;55732;52.248;-0.844;2023-08-24T04:19:12;7.10;;;3.40;;
62925;SDS011;55732;52.248;-0.844;2023-08-24T04:21:38;8.20;;;4.00;;
62925;SDS011;55732;52.248;-0.844;2023-08-24T04:24:04;5.20;;;3.10;;
62925;SDS011;55732;52.248;-0.844;2023-08-24T04:26:30;6.90;;;3.90;;
62925;SDS011;55732;52.248;-0.844;2023-08-24T04:28:55;6.70;;;3.50;;
62925;SDS011;55732;52.248;-0.844;2023-08-24T04:31:21;7.80;;;3.80;;
62925;SDS011;55732;52.248;-0.844;2023-08-24T04:33:46;10.60;;;3.10;;
62925;SDS011;55732;52.248;-0.844;2023-08-24T04:36:12;7.60;;;3.60;;
62925;SDS011;55732;52.248;-0.844;2023-08-24T04:38:37;8.20;;;4.10;;
62925;SDS011;55732;52.248;-0.844;2023-08-24T04:41:03;10.10;;;3.70;;
62925;SDS011;55732;52.248;-0.844;2023-08-24T04:43:32;11.60;;;4.30;;
62925;SDS011;55732;52.248;-0.844;2023-08-24T04:45:58;5.60;;;3.60;;
62925;SDS011;55732;52.248;-0.844;2023-08-24T04:48:24;8.20;;;3.40;;
62925;SDS011;55732;52.248;-0.844;2023-08-24T04:50:57;7.30;;;4.00;;
62925;SDS011;55732;52.248;-0.844;2023-08-24T04:53:23;8.10;;;4.40;;
62925;SDS011;55732;52.248;-0.844;2023-08-24T04:55:49;11.10;;;4.10;;
62925;SDS011;55732;52.248;-0.844;2023-08-24T04:58:15;9.10;;;4.10;;
62925;SDS011;55732;52.248;-0.844;2023-08-24T05:00:41;11.10;;;4.20;;
62925;SDS011;55732;52.248;-0.844;2023-08-24T05:03:07;8.20;;;3.50;;
62925;SDS011;55732;52.248;-0.844;2023-08-24T05:05:33;10.00;;;4.00;;
62925;SDS011;55732;52.248;-0.844;2023-08-24T05:08:00;6.10;;;3.90;;
62925;SDS011;55732;52.248;-0.844;2023-08-24T05:10:32;7.90;;;4.60;;
62925;SDS011;55732;52.248;-0.844;2023-08-24T05:12:58;10.90;;;4.10;;
62925;SDS011;55732;52.248;-0.844;2023-08-24T05:15:24;11.10;;;3.70;;
62925;SDS011;55732;52.248;-0.844;2023-08-24T05:17:50;6.90;;;3.80;;
62925;SDS011;55732;52.248;-0.844;2023-08-24T05:20:19;7.60;;;3.90;;
62925;SDS011;55732;52.248;-0.844;2023-08-24T05:22:48;7.20;;;4.00;;
62925;SDS011;55732;52.248;-0.844;2023-08-24T05:25:20;8.10;;;4.30;;
62925;SDS011;55732;52.248;-0.844;2023-08-24T05:27:47;7.60;;;3.80;;
62925;SDS011;55732;52.248;-0.844;2023-08-24T05:30:12;12.10;;;4.10;;
62925;SDS011;55732;52.248;-0.844;2023-08-24T05:32:38;13.10;;;3.90;;
62925;SDS011;55732;52.248;-0.844;2023-08-24T05:35:04;6.60;;;3.70;;
62925;SDS011;55732;52.248;-0.844;2023-08-24T05:37:34;8.90;;;4.10;;
62925;SDS011;55732;52.248;-0.844;2023-08-24T05:40:00;7.30;;;3.80;;
62925;SDS011;55732;52.248;-0.844;2023-08-24T05:42:26;7.80;;;4.20;;
62925;SDS011;55732;52.248;-0.844;2023-08-24T05:44:52;6.10;;;3.90;;
62925;SDS011;55732;52.248;-0.844;2023-08-24T05:47:18;9.00;;;4.80;;
62925;SDS011;55732;52.248;-0.844;2023-08-24T05:49:43;6.40;;;3.80;;
62925;SDS011;55732;52.248;-0.844;2023-08-24T05:52:09;6.90;;;4.00;;
62925;SDS011;55732;52.248;-0.844;2023-08-24T05:54:36;11.00;;;4.20;;
62925;SDS011;55732;52.248;-0.844;2023-08-24T05:57:01;7.30;;;3.80;;
62925;SDS011;55732;52.248;-0.844;2023-08-24T05:59:28;7.60;;;4.00;;
62925;SDS011;55732;52.248;-0.844;2023-08-24T06:01:54;14.10;;;3.80;;
62925;SDS011;55732;52.248;-0.844;2023-08-24T06:04:20;7.40;;;4.20;;
62925;SDS011;55732;52.248;-0.844;2023-08-24T06:06:45;7.20;;;4.00;;
62925;SDS011;55732;52.248;-0.844;2023-08-24T06:09:11;10.30;;;4.40;;
62925;SDS011;55732;52.248;-0.844;2023-08-24T06:11:36;8.90;;;4.40;;
62925;SDS011;55732;52.248;-0.844;2023-08-24T06:14:02;5.70;;;4.10;;
62925;SDS011;55732;52.248;-0.844;2023-08-24T06:16:27;8.10;;;4.00;;
62925;SDS011;55732;52.248;-0.844;2023-08-24T06:18:54;10.10;;;4.10;;
62925;SDS011;55732;52.248;-0.844;2023-08-24T06:21:19;13.00;;;3.90;;
62925;SDS011;55732;52.248;-0.844;2023-08-24T06:23:44;6.00;;;3.70;;
62925;SDS011;55732;52.248;-0.844;2023-08-24T06:28:37;7.00;;;4.00;;
62925;SDS011;55732;52.248;-0.844;2023-08-24T06:31:03;8.40;;;4.10;;
62925;SDS011;55732;52.248;-0.844;2023-08-24T06:33:29;7.20;;;3.70;;
62925;SDS011;55732;52.248;-0.844;2023-08-24T06:35:59;6.40;;;3.80;;
62925;SDS011;55732;52.248;-0.844;2023-08-24T06:38:26;8.10;;;4.30;;
62925;SDS011;55732;52.248;-0.844;2023-08-24T06:40:51;6.10;;;3.40;;
62925;SDS011;55732;52.248;-0.844;2023-08-24T06:43:17;9.40;;;3.60;;
62925;SDS011;55732;52.248;-0.844;2023-08-24T06:45:45;9.60;;;3.60;;
62925;SDS011;55732;52.248;-0.844;2023-08-24T06:48:11;10.40;;;4.10;;
62925;SDS011;55732;52.248;-0.844;2023-08-24T06:50:36;10.50;;;3.60;;
62925;SDS011;55732;52.248;-0.844;2023-08-24T06:53:02;11.40;;;3.70;;
62925;SDS011;55732;52.248;-0.844;2023-08-24T06:55:28;9.00;;;4.00;;
62925;SDS011;55732;52.248;-0.844;2023-08-24T06:57:54;12.90;;;4.30;;
62925;SDS011;55732;52.248;-0.844;2023-08-24T07:00:19;10.30;;;3.70;;
62925;SDS011;55732;52.248;-0.844;2023-08-24T07:02:54;5.30;;;3.80;;
62925;SDS011;55732;52.248;-0.844;2023-08-24T07:05:19;5.80;;;4.00;;
62925;SDS011;55732;52.248;-0.844;2023-08-24T07:07:45;9.50;;;3.80;;
62925;SDS011;55732;52.248;-0.844;2023-08-24T07:10:12;8.60;;;4.20;;
62925;SDS011;55732;52.248;-0.844;2023-08-24T07:12:38;8.80;;;4.10;;
62925;SDS011;55732;52.248;-0.844;2023-08-24T07:15:07;9.90;;;4.50;;
62925;SDS011;55732;52.248;-0.844;2023-08-24T07:17:33;8.00;;;5.30;;
62925;SDS011;55732;52.248;-0.844;2023-08-24T07:19:58;6.60;;;4.40;;
62925;SDS011;55732;52.248;-0.844;2023-08-24T07:22:24;13.50;;;4.50;;
62925;SDS011;55732;52.248;-0.844;2023-08-24T07:24:51;8.70;;;4.90;;
62925;SDS011;55732;52.248;-0.844;2023-08-24T07:27:18;9.40;;;4.70;;
62925;SDS011;55732;52.248;-0.844;2023-08-24T07:29:43;9.80;;;4.80;;
62925;SDS011;55732;52.248;-0.844;2023-08-24T07:32:09;8.80;;;4.10;;
62925;SDS011;55732;52.248;-0.844;2023-08-24T07:34:34;8.60;;;4.80;;
62925;SDS011;55732;52.248;-0.844;2023-08-24T07:37:00;10.10;;;4.90;;
62925;SDS011;55732;52.248;-0.844;2023-08-24T07:39:25;9.70;;;4.90;;
62925;SDS011;55732;52.248;-0.844;2023-08-24T07:41:51;9.60;;;5.50;;
62925;SDS011;55732;52.248;-0.844;2023-08-24T07:44:16;14.00;;;4.60;;
62925;SDS011;55732;52.248;-0.844;2023-08-24T07:46:41;12.60;;;5.30;;
62925;SDS011;55732;52.248;-0.844;2023-08-24T07:49:07;11.10;;;5.10;;
62925;SDS011;55732;52.248;-0.844;2023-08-24T07:51:33;10.30;;;4.50;;
62925;SDS011;55732;52.248;-0.844;2023-08-24T07:53:59;10.50;;;4.90;;
62925;SDS011;55732;52.248;-0.844;2023-08-24T07:56:25;10.40;;;4.80;;
62925;SDS011;55732;52.248;-0.844;2023-08-24T07:58:50;9.60;;;4.80;;
62925;SDS011;55732;52.248;-0.844;2023-08-24T08:01:16;12.20;;;5.00;;
62925;SDS011;55732;52.248;-0.844;2023-08-24T08:03:41;8.60;;;4.60;;
62925;SDS011;55732;52.248;-0.844;2023-08-24T08:06:06;14.20;;;4.80;;
62925;SDS011;55732;52.248;-0.844;2023-08-24T08:08:32;11.50;;;4.40;;
62925;SDS011;55732;52.248;-0.844;2023-08-24T08:10:58;10.40;;;4.50;;
62925;SDS011;55732;52.248;-0.844;2023-08-24T08:13:27;8.30;;;4.00;;
62925;SDS011;55732;52.248;-0.844;2023-08-24T08:16:01;7.70;;;4.10;;
62925;SDS011;55732;52.248;-0.844;2023-08-24T08:18:28;8.90;;;4.30;;
62925;SDS011;55732;52.248;-0.844;2023-08-24T08:20:54;7.10;;;4.20;;
62925;SDS011;55732;52.248;-0.844;2023-08-24T08:23:19;12.90;;;4.60;;
62925;SDS011;55732;52.248;-0.844;2023-08-24T08:25:45;7.60;;;4.10;;
62925;SDS011;55732;52.248;-0.844;2023-08-24T08:28:10;7.80;;;4.40;;
62925;SDS011;55732;52.248;-0.844;2023-08-24T08:30:36;10.70;;;4.70;;
62925;SDS011;55732;52.248;-0.844;2023-08-24T08:33:01;9.50;;;4.30;;
62925;SDS011;55732;52.248;-0.844;2023-08-24T08:35:27;9.10;;;4.50;;
62925;SDS011;55732;52.248;-0.844;2023-08-24T08:37:52;9.70;;;4.30;;
62925;SDS011;55732;52.248;-0.844;2023-08-24T08:40:19;11.50;;;4.90;;
62925;SDS011;55732;52.248;-0.844;2023-08-24T08:42:44;11.60;;;5.20;;
62925;SDS011;55732;52.248;-0.844;2023-08-24T08:45:11;10.70;;;4.40;;
62925;SDS011;55732;52.248;-0.844;2023-08-24T08:47:37;8.90;;;4.30;;
62925;SDS011;55732;52.248;-0.844;2023-08-24T08:50:03;6.60;;;4.20;;
62925;SDS011;55732;52.248;-0.844;2023-08-24T08:52:29;10.50;;;5.10;;
62925;SDS011;55732;52.248;-0.844;2023-08-24T08:57:22;7.30;;;3.60;;
62925;SDS011;55732;52.248;-0.844;2023-08-24T08:59:50;8.10;;;3.30;;
62925;SDS011;55732;52.248;-0.844;2023-08-24T09:02:19;10.50;;;3.40;;
62925;SDS011;55732;52.248;-0.844;2023-08-24T09:07:12;4.90;;;3.00;;
62925;SDS011;55732;52.248;-0.844;2023-08-24T09:09:38;7.20;;;3.10;;
62925;SDS011;55732;52.248;-0.844;2023-08-24T09:12:07;5.50;;;3.20;;
62925;SDS011;55732;52.248;-0.844;2023-08-24T09:14:33;7.80;;;3.60;;
62925;SDS011;55732;52.248;-0.844;2023-08-24T09:16:59;5.60;;;3.00;;
62925;SDS011;55732;52.248;-0.844;2023-08-24T09:19:29;4.90;;;3.00;;
62925;SDS011;55732;52.248;-0.844;2023-08-24T09:21:59;5.20;;;3.10;;
62925;SDS011;55732;52.248;-0.844;2023-08-24T09:24:32;9.80;;;3.20;;
62925;SDS011;55732;52.248;-0.844;2023-08-24T09:26:58;13.60;;;3.40;;
62925;SDS011;55732;52.248;-0.844;2023-08-24T09:29:25;6.60;;;2.80;;
62925;SDS011;55732;52.248;-0.844;2023-08-24T09:31:51;8.80;;;3.50;;
62925;SDS011;55732;52.248;-0.844;2023-08-24T09:34:20;13.70;;;3.40;;
62925;SDS011;55732;52.248;-0.844;2023-08-24T09:36:46;11.60;;;3.20;;
62925;SDS011;55732;52.248;-0.844;2023-08-24T09:39:12;5.40;;;3.00;;
62925;SDS011;55732;52.248;-0.844;2023-08-24T09:41:44;6.40;;;3.00;;
62925;SDS011;55732;52.248;-0.844;2023-08-24T09:44:16;5.30;;;3.10;;
62925;SDS011;55732;52.248;-0.844;2023-08-24T09:46:42;7.70;;;2.90;;
62925;SDS011;55732;52.248;-0.844;2023-08-24T09:49:08;6.30;;;2.80;;
62925;SDS011;55732;52.248;-0.844;2023-08-24T09:51:36;9.90;;;2.70;;
62925;SDS011;55732;52.248;-0.844;2023-08-24T09:54:06;9.00;;;2.90;;
62925;SDS011;55732;52.248;-0.844;2023-08-24T09:56:36;4.80;;;2.60;;
62925;SDS011;55732;52.248;-0.844;2023-08-24T09:59:12;6.20;;;3.00;;
62925;SDS011;55732;52.248;-0.844;2023-08-24T10:01:42;6.60;;;2.70;;
62925;SDS011;55732;52.248;-0.844;2023-08-24T10:04:09;8.20;;;3.00;;
62925;SDS011;55732;52.248;-0.844;2023-08-24T10:06:38;5.60;;;2.80;;
62925;SDS011;55732;52.248;-0.844;2023-08-24T10:09:06;12.50;;;2.90;;
62925;SDS011;55732;52.248;-0.844;2023-08-24T10:11:34;7.60;;;2.40;;
62925;SDS011;55732;52.248;-0.844;2023-08-24T10:14:12;5.30;;;2.00;;
62925;SDS011;55732;52.248;-0.844;2023-08-24T10:16:44;6.60;;;2.50;;
62925;SDS011;55732;52.248;-0.844;2023-08-24T10:19:11;5.80;;;2.40;;
62925;SDS011;55732;52.248;-0.844;2023-08-24T10:21:38;7.40;;;2.40;;
62925;SDS011;55732;52.248;-0.844;2023-08-24T10:24:05;6.20;;;2.70;;
62925;SDS011;55732;52.248;-0.844;2023-08-24T10:26:32;5.60;;;2.60;;
62925;SDS011;55732;52.248;-0.844;2023-08-24T10:28:58;6.80;;;2.60;;
62925;SDS011;55732;52.248;-0.844;2023-08-24T10:31:24;6.70;;;2.70;;
62925;SDS011;55732;52.248;-0.844;2023-08-24T10:33:51;5.60;;;2.30;;
62925;SDS011;55732;52.248;-0.844;2023-08-24T10:36:18;5.60;;;2.90;;
62925;SDS011;55732;52.248;-0.844;2023-08-24T10:38:44;5.10;;;2.50;;
62925;SDS011;55732;52.248;-0.844;2023-08-24T10:41:10;6.20;;;2.50;;
62925;SDS011;55732;52.248;-0.844;2023-08-24T10:43:39;5.10;;;2.60;;
62925;SDS011;55732;52.248;-0.844;2023-08-24T10:46:12;5.30;;;2.90;;
62925;SDS011;55732;52.248;-0.844;2023-08-24T10:53:51;5.30;;;2.10;;
62925;SDS011;55732;52.248;-0.844;2023-08-24T10:56:38;4.20;;;2.30;;
62925;SDS011;55732;52.248;-0.844;2023-08-24T11:01:38;8.90;;;2.30;;
62925;SDS011;55732;52.248;-0.844;2023-08-24T11:04:05;8.90;;;2.60;;
62925;SDS011;55732;52.248;-0.844;2023-08-24T11:06:33;5.10;;;2.40;;
62925;SDS011;55732;52.248;-0.844;2023-08-24T11:09:05;4.00;;;2.10;;
62925;SDS011;55732;52.248;-0.844;2023-08-24T11:11:41;3.30;;;2.30;;
62925;SDS011;55732;52.248;-0.844;2023-08-24T11:16:41;4.20;;;2.10;;
62925;SDS011;55732;52.248;-0.844;2023-08-24T11:19:08;3.30;;;2.00;;
62925;SDS011;55732;52.248;-0.844;2023-08-24T11:21:39;8.60;;;2.70;;
62925;SDS011;55732;52.248;-0.844;2023-08-24T11:26:31;4.50;;;1.80;;
62925;SDS011;55732;52.248;-0.844;2023-08-24T11:28:56;12.90;;;2.60;;
62925;SDS011;55732;52.248;-0.844;2023-08-24T11:31:26;7.20;;;2.40;;
62925;SDS011;55732;52.248;-0.844;2023-08-24T11:33:55;3.90;;;1.90;;
62925;SDS011;55732;52.248;-0.844;2023-08-24T11:36:21;2.50;;;1.90;;
62925;SDS011;55732;52.248;-0.844;2023-08-24T11:38:49;4.30;;;2.10;;
62925;SDS011;55732;52.248;-0.844;2023-08-24T11:41:17;6.60;;;1.90;;
62925;SDS011;55732;52.248;-0.844;2023-08-24T11:46:10;2.90;;;2.00;;
62925;SDS011;55732;52.248;-0.844;2023-08-24T11:48:37;5.90;;;2.30;;
62925;SDS011;55732;52.248;-0.844;2023-08-24T11:51:07;2.60;;;1.90;;
62925;SDS011;55732;52.248;-0.844;2023-08-24T11:53:36;3.10;;;1.80;;
62925;SDS011;55732;52.248;-0.844;2023-08-24T11:56:02;4.50;;;1.80;;
62925;SDS011;55732;52.248;-0.844;2023-08-24T11:58:27;3.00;;;1.90;;
62925;SDS011;55732;52.248;-0.844;2023-08-24T12:00:53;4.30;;;2.40;;
62925;SDS011;55732;52.248;-0.844;2023-08-24T12:03:19;5.20;;;2.20;;
62925;SDS011;55732;52.248;-0.844;2023-08-24T12:05:44;7.20;;;1.80;;
62925;SDS011;55732;52.248;-0.844;2023-08-24T12:08:10;4.10;;;1.80;;
62925;SDS011;55732;52.248;-0.844;2023-08-24T12:10:41;3.10;;;1.80;;
62925;SDS011;55732;52.248;-0.844;2023-08-24T12:13:07;3.40;;;1.90;;
62925;SDS011;55732;52.248;-0.844;2023-08-24T12:15:34;3.30;;;1.90;;
62925;SDS011;55732;52.248;-0.844;2023-08-24T12:20:36;6.60;;;1.90;;
62925;SDS011;55732;52.248;-0.844;2023-08-24T12:23:02;2.20;;;1.80;;
62925;SDS011;55732;52.248;-0.844;2023-08-24T12:25:28;3.90;;;2.00;;
62925;SDS011;55732;52.248;-0.844;2023-08-24T12:28:07;2.30;;;1.70;;
62925;SDS011;55732;52.248;-0.844;2023-08-24T12:30:46;5.20;;;1.80;;
62925;SDS011;55732;52.248;-0.844;2023-08-24T12:33:25;2.90;;;1.80;;
62925;SDS011;55732;52.248;-0.844;2023-08-24T12:35:52;4.60;;;1.50;;
62925;SDS011;55732;52.248;-0.844;2023-08-24T12:40:44;1.50;;;1.20;;
62925;SDS011;55732;52.248;-0.844;2023-08-24T12:43:09;5.30;;;1.60;;
62925;SDS011;55732;52.248;-0.844;2023-08-24T12:45:35;2.40;;;1.40;;
62925;SDS011;55732;52.248;-0.844;2023-08-24T12:48:03;4.70;;;1.90;;
62925;SDS011;55732;52.248;-0.844;2023-08-24T12:50:29;2.00;;;1.50;;
62925;SDS011;55732;52.248;-0.844;2023-08-24T12:52:54;3.80;;;1.50;;
62925;SDS011;55732;52.248;-0.844;2023-08-24T12:55:23;3.60;;;1.40;;
62925;SDS011;55732;52.248;-0.844;2023-08-24T12:57:48;2.10;;;1.70;;
62925;SDS011;55732;52.248;-0.844;2023-08-24T13:00:14;4.10;;;1.30;;
62925;SDS011;55732;52.248;-0.844;2023-08-24T13:02:39;1.70;;;1.40;;
62925;SDS011;55732;52.248;-0.844;2023-08-24T13:05:05;3.30;;;1.50;;
62925;SDS011;55732;52.248;-0.844;2023-08-24T13:07:31;5.20;;;1.50;;
62925;SDS011;55732;52.248;-0.844;2023-08-24T13:09:57;5.40;;;1.60;;
62925;SDS011;55732;52.248;-0.844;2023-08-24T13:12:23;2.60;;;1.60;;
62925;SDS011;55732;52.248;-0.844;2023-08-24T13:14:49;3.80;;;1.60;;
62925;SDS011;55732;52.248;-0.844;2023-08-24T13:17:15;3.50;;;1.20;;
62925;SDS011;55732;52.248;-0.844;2023-08-24T13:19:40;2.60;;;1.30;;
62925;SDS011;55732;52.248;-0.844;2023-08-24T13:22:05;6.10;;;1.40;;
62925;SDS011;55732;52.248;-0.844;2023-08-24T13:24:33;6.40;;;1.80;;
62925;SDS011;55732;52.248;-0.844;2023-08-24T13:26:59;6.30;;;1.70;;
62925;SDS011;55732;52.248;-0.844;2023-08-24T13:29:25;4.40;;;1.30;;
62925;SDS011;55732;52.248;-0.844;2023-08-24T13:31:51;9.30;;;3.10;;
62925;SDS011;55732;52.248;-0.844;2023-08-24T13:34:16;3.30;;;1.40;;
62925;SDS011;55732;52.248;-0.844;2023-08-24T13:36:42;4.90;;;1.30;;
62925;SDS011;55732;52.248;-0.844;2023-08-24T13:39:07;2.20;;;1.50;;
62925;SDS011;55732;52.248;-0.844;2023-08-24T13:41:33;3.30;;;1.50;;
62925;SDS011;55732;52.248;-0.844;2023-08-24T13:43:58;3.10;;;1.50;;
62925;SDS011;55732;52.248;-0.844;2023-08-24T13:46:23;2.50;;;1.30;;
62925;SDS011;55732;52.248;-0.844;2023-08-24T13:48:49;2.30;;;1.50;;
62925;SDS011;55732;52.248;-0.844;2023-08-24T13:51:14;1.80;;;1.30;;
62925;SDS011;55732;52.248;-0.844;2023-08-24T13:53:39;1.50;;;1.10;;
62925;SDS011;55732;52.248;-0.844;2023-08-24T13:56:05;4.10;;;1.30;;
62925;SDS011;55732;52.248;-0.844;2023-08-24T13:58:30;2.10;;;1.30;;
62925;SDS011;55732;52.248;-0.844;2023-08-24T14:00:56;2.90;;;1.40;;
62925;SDS011;55732;52.248;-0.844;2023-08-24T14:03:22;1.90;;;1.30;;
62925;SDS011;55732;52.248;-0.844;2023-08-24T14:05:48;2.90;;;1.20;;
62925;SDS011;55732;52.248;-0.844;2023-08-24T14:10:40;1.80;;;1.40;;
62925;SDS011;55732;52.248;-0.844;2023-08-24T14:13:05;2.10;;;1.40;;
62925;SDS011;55732;52.248;-0.844;2023-08-24T14:15:31;1.40;;;1.20;;
62925;SDS011;55732;52.248;-0.844;2023-08-24T14:17:56;3.60;;;1.30;;
62925;SDS011;55732;52.248;-0.844;2023-08-24T14:20:21;1.40;;;1.30;;
62925;SDS011;55732;52.248;-0.844;2023-08-24T14:22:47;1.80;;;1.40;;
62925;SDS011;55732;52.248;-0.844;2023-08-24T14:25:13;2.20;;;1.10;;
62925;SDS011;55732;52.248;-0.844;2023-08-24T14:27:39;4.90;;;1.40;;
62925;SDS011;55732;52.248;-0.844;2023-08-24T14:30:07;3.10;;;1.40;;
62925;SDS011;55732;52.248;-0.844;2023-08-24T14:32:33;1.50;;;1.40;;
62925;SDS011;55732;52.248;-0.844;2023-08-24T14:34:58;3.40;;;1.30;;
62925;SDS011;55732;52.248;-0.844;2023-08-24T14:37:24;1.80;;;1.20;;
62925;SDS011;55732;52.248;-0.844;2023-08-24T14:39:49;3.70;;;1.70;;
62925;SDS011;55732;52.248;-0.844;2023-08-24T14:42:15;1.90;;;1.30;;
62925;SDS011;55732;52.248;-0.844;2023-08-24T14:44:40;1.50;;;1.20;;
62925;SDS011;55732;52.248;-0.844;2023-08-24T14:47:05;1.40;;;1.10;;
62925;SDS011;55732;52.248;-0.844;2023-08-24T14:49:31;1.30;;;1.00;;
62925;SDS011;55732;52.248;-0.844;2023-08-24T14:51:57;3.90;;;1.50;;
62925;SDS011;55732;52.248;-0.844;2023-08-24T14:54:23;6.80;;;1.50;;
62925;SDS011;55732;52.248;-0.844;2023-08-24T14:56:48;1.80;;;1.20;;
62925;SDS011;55732;52.248;-0.844;2023-08-24T14:59:13;2.80;;;1.10;;
62925;SDS011;55732;52.248;-0.844;2023-08-24T15:01:39;1.80;;;1.30;;
62925;SDS011;55732;52.248;-0.844;2023-08-24T15:04:04;4.70;;;1.20;;
62925;SDS011;55732;52.248;-0.844;2023-08-24T15:06:29;1.20;;;1.10;;
62925;SDS011;55732;52.248;-0.844;2023-08-24T15:08:55;2.60;;;1.20;;